Time;durP1;ratioP1;P1;durP2;ratioP2;P2;SDS_P1;SDS_P2;PMS_P1;PMS_P2;Temp;Humidity;BMP_temperature;BMP_pressure;BME280_temperature;BME280_humidity;BME280_pressure;Samples;Min_cycle;Max_cycle;Signal;HPM_P1;HPM_P2
2021/10/31 00:01:11;;;;;;;0.50;0.50;;;9.60;99.90;;;;;;5071420;28;20195;-81
2021/10/31 00:03:37;;;;;;;0.93;0.60;;;9.60;99.90;;;;;;5065105;28;20692;-81
2021/10/31 00:06:03;;;;;;;1.07;0.80;;;9.60;99.90;;;;;;5074695;28;20181;-81
2021/10/31 00:08:29;;;;;;;1.10;0.80;;;9.60;99.90;;;;;;5071413;28;20683;-80
2021/10/31 00:10:56;;;;;;;0.63;0.60;;;9.60;99.90;;;;;;5075852;28;20240;-81
2021/10/31 00:13:23;;;;;;;1.33;0.80;;;9.60;99.90;;;;;;5065329;28;20205;-81
2021/10/31 00:15:48;;;;;;;0.33;0.33;;;9.70;99.90;;;;;;5072870;28;20178;-81
2021/10/31 00:18:14;;;;;;;1.67;1.43;;;9.60;99.90;;;;;;5072300;28;20273;-81
2021/10/31 00:20:40;;;;;;;0.97;0.77;;;9.60;99.90;;;;;;5069015;28;20571;-80
2021/10/31 00:23:05;;;;;;;0.63;0.33;;;9.60;99.90;;;;;;5070853;28;20251;-80
2021/10/31 00:25:31;;;;;;;1.23;1.13;;;9.50;99.90;;;;;;5071264;28;20255;-80
2021/10/31 00:27:56;;;;;;;0.47;0.47;;;9.50;99.90;;;;;;5063622;28;21511;-81
2021/10/31 00:30:22;;;;;;;0.50;0.50;;;9.60;99.90;;;;;;5063617;28;20288;-81
2021/10/31 00:32:47;;;;;;;1.50;1.13;;;9.50;99.90;;;;;;5067434;28;20182;-80
2021/10/31 00:35:13;;;;;;;0.57;0.57;;;9.40;99.90;;;;;;5074528;28;20231;-81
2021/10/31 00:37:39;;;;;;;1.23;1.00;;;9.40;99.90;;;;;;5067277;28;20182;-81
2021/10/31 00:40:05;;;;;;;3.40;1.63;;;9.40;99.90;;;;;;5074336;28;20269;-81
2021/10/31 00:42:30;;;;;;;1.37;1.30;;;9.40;99.90;;;;;;5066494;28;20177;-80
2021/10/31 00:44:56;;;;;;;0.80;0.80;;;9.40;99.90;;;;;;5076305;28;20219;-81
2021/10/31 00:47:22;;;;;;;0.63;0.63;;;9.30;99.90;;;;;;5068940;28;20186;-81
2021/10/31 00:49:47;;;;;;;0.80;0.80;;;9.30;99.90;;;;;;5063732;28;20205;-81
2021/10/31 00:52:16;;;;;;;0.80;0.63;;;9.30;99.90;;;;;;5072634;28;20661;-80
2021/10/31 00:54:42;;;;;;;0.57;0.57;;;9.30;99.90;;;;;;5071352;28;20196;-80
2021/10/31 00:57:10;;;;;;;1.03;1.03;;;9.30;99.90;;;;;;5069743;28;20188;-81
2021/10/31 00:59:36;;;;;;;4.90;1.07;;;9.30;99.90;;;;;;5059234;28;20573;-81
2021/10/31 01:02:08;;;;;;;2.57;0.83;;;9.30;99.90;;;;;;5068865;28;20186;-80
2021/10/31 01:04:34;;;;;;;1.30;1.20;;;9.30;99.90;;;;;;5062161;28;20204;-80
2021/10/31 01:07:32;;;;;;;3.10;1.83;;;9.30;99.90;;;;;;5067963;28;20180;-79
2021/10/31 01:10:13;;;;;;;1.23;1.10;;;9.30;99.90;;;;;;5062356;28;20631;-80
2021/10/31 01:12:57;;;;;;;1.23;0.87;;;9.20;99.90;;;;;;5064077;28;20197;-79
2021/10/31 01:15:42;;;;;;;4.63;1.07;;;9.20;99.90;;;;;;5069866;28;20185;-80
2021/10/31 01:18:40;;;;;;;1.43;1.07;;;9.40;99.90;;;;;;5063184;28;20175;-80
2021/10/31 01:21:51;;;;;;;0.40;0.40;;;9.40;99.90;;;;;;5064966;28;20186;-80
2021/10/31 01:24:54;;;;;;;1.23;1.13;;;9.40;99.90;;;;;;5041663;28;20211;-80
2021/10/31 01:27:29;;;;;;;1.23;0.77;;;9.50;99.90;;;;;;5057162;28;20173;-81
2021/10/31 01:30:13;;;;;;;0.70;0.70;;;9.50;99.90;;;;;;5069282;28;20223;-80
2021/10/31 01:32:56;;;;;;;4.60;1.53;;;9.40;99.90;;;;;;5067699;28;20208;-81
2021/10/31 01:35:43;;;;;;;0.70;0.70;;;9.40;99.90;;;;;;5064886;28;20275;-80
2021/10/31 01:38:31;;;;;;;0.60;0.60;;;9.50;99.90;;;;;;5066872;28;20635;-80
2021/10/31 01:41:18;;;;;;;0.70;0.70;;;9.60;99.90;;;;;;5069806;28;20214;-80
2021/10/31 01:44:22;;;;;;;1.40;0.77;;;9.50;99.90;;;;;;5066838;28;20208;-81
2021/10/31 01:47:10;;;;;;;1.73;1.63;;;9.40;99.90;;;;;;5047732;28;20184;-80
2021/10/31 01:49:42;;;;;;;0.80;0.73;;;9.30;99.90;;;;;;5065114;28;20200;-81
2021/10/31 01:52:13;;;;;;;1.47;0.70;;;9.30;99.90;;;;;;5065626;28;20632;-81
2021/10/31 01:54:55;;;;;;;3.00;1.07;;;9.40;99.90;;;;;;5070058;28;20521;-80
2021/10/31 01:57:23;;;;;;;0.10;0.10;;;9.60;99.90;;;;;;5065581;28;20597;-81
2021/10/31 01:59:55;;;;;;;0.50;0.50;;;9.80;99.90;;;;;;5062138;28;20276;-80
2021/10/31 02:02:23;;;;;;;0.90;0.90;;;9.70;99.90;;;;;;5056921;28;20234;-81
2021/10/31 02:04:51;;;;;;;1.50;0.80;;;9.70;99.90;;;;;;5060120;28;20207;-81
2021/10/31 02:07:21;;;;;;;1.70;0.77;;;9.70;99.90;;;;;;5069475;28;20180;-81
2021/10/31 02:09:49;;;;;;;3.53;1.67;;;9.90;99.90;;;;;;5074847;28;20229;-80
2021/10/31 02:12:18;;;;;;;2.10;1.90;;;9.70;99.90;;;;;;5063574;28;20176;-80
2021/10/31 02:14:46;;;;;;;0.77;0.77;;;9.70;99.90;;;;;;5053904;28;20189;-80
2021/10/31 02:17:13;;;;;;;1.33;0.63;;;9.70;99.90;;;;;;5066481;28;20215;-80
2021/10/31 02:19:42;;;;;;;1.37;1.30;;;9.60;99.90;;;;;;5072168;28;20207;-80
2021/10/31 02:22:29;;;;;;;2.17;2.07;;;9.60;99.90;;;;;;5068515;28;20281;-81
2021/10/31 02:24:55;;;;;;;0.73;0.53;;;9.60;99.90;;;;;;5069030;28;20239;-80
2021/10/31 02:27:24;;;;;;;2.87;1.70;;;9.60;99.90;;;;;;5068806;28;20186;-80
2021/10/31 02:29:52;;;;;;;1.60;1.13;;;9.60;99.90;;;;;;5068596;28;21249;-80
2021/10/31 02:32:21;;;;;;;0.73;0.40;;;9.80;99.90;;;;;;5069214;28;20217;-81
2021/10/31 02:34:47;;;;;;;0.27;0.27;;;9.80;99.90;;;;;;5068607;28;20184;-80
2021/10/31 02:37:13;;;;;;;2.67;0.93;;;9.70;99.90;;;;;;5070956;28;20576;-80
2021/10/31 02:39:39;;;;;;;0.93;0.93;;;9.70;99.90;;;;;;5070615;28;20209;-81
2021/10/31 02:42:04;;;;;;;1.00;0.57;;;9.70;99.90;;;;;;5069544;28;20206;-80
2021/10/31 02:44:30;;;;;;;2.70;2.50;;;9.60;99.90;;;;;;5071794;28;20210;-81
2021/10/31 02:46:57;;;;;;;1.33;1.10;;;9.60;99.90;;;;;;5067703;28;20253;-80
2021/10/31 02:49:23;;;;;;;1.33;0.93;;;9.60;99.90;;;;;;5066397;28;20243;-80
2021/10/31 02:52:02;;;;;;;1.00;0.93;;;9.60;99.90;;;;;;5063427;28;20180;-81
2021/10/31 02:55:06;;;;;;;0.90;0.90;;;9.60;99.90;;;;;;5057228;28;20276;-80
2021/10/31 02:57:35;;;;;;;1.87;0.97;;;9.60;99.90;;;;;;5048509;28;20614;-80
2021/10/31 03:00:06;;;;;;;1.37;1.27;;;9.60;99.90;;;;;;5061464;28;20202;-80
2021/10/31 03:02:32;;;;;;;1.00;0.93;;;9.60;99.90;;;;;;5068565;28;20186;-81
2021/10/31 03:04:58;;;;;;;0.80;0.80;;;9.70;99.90;;;;;;5072172;28;20211;-80
2021/10/31 03:07:24;;;;;;;0.80;0.73;;;9.70;99.90;;;;;;5066391;28;20533;-81
2021/10/31 03:09:50;;;;;;;0.70;0.70;;;9.80;99.90;;;;;;5071863;28;20203;-80
2021/10/31 03:12:18;;;;;;;1.80;1.70;;;9.80;99.90;;;;;;5071281;28;20257;-81
2021/10/31 03:14:45;;;;;;;4.90;1.07;;;9.70;99.90;;;;;;5070620;28;20190;-81
2021/10/31 03:17:11;;;;;;;0.40;0.40;;;9.90;99.90;;;;;;5070782;28;20547;-81
2021/10/31 03:19:37;;;;;;;1.30;1.20;;;9.90;99.90;;;;;;5065014;28;20296;-81
2021/10/31 03:22:07;;;;;;;0.77;0.63;;;10.10;99.90;;;;;;5065217;28;20199;-81
2021/10/31 03:24:34;;;;;;;0.63;0.60;;;10.20;99.90;;;;;;5070700;28;20212;-80
2021/10/31 03:27:00;;;;;;;2.37;0.70;;;10.20;99.90;;;;;;5063262;28;20174;-81
2021/10/31 03:29:25;;;;;;;0.87;0.87;;;10.00;99.90;;;;;;5067633;28;20287;-81
2021/10/31 03:31:52;;;;;;;1.23;0.80;;;10.00;99.90;;;;;;5080390;28;20267;-80
2021/10/31 03:34:18;;;;;;;1.13;1.03;;;9.90;99.90;;;;;;5065454;28;20708;-80
2021/10/31 03:36:44;;;;;;;1.57;1.47;;;10.00;99.90;;;;;;5071766;28;20276;-81
2021/10/31 03:39:09;;;;;;;1.57;1.10;;;10.00;99.90;;;;;;5076480;28;20257;-81
2021/10/31 03:41:35;;;;;;;1.43;0.90;;;10.10;99.90;;;;;;5074660;28;20180;-81
2021/10/31 03:44:02;;;;;;;0.67;0.50;;;10.10;99.90;;;;;;5070991;28;20215;-80
2021/10/31 03:46:27;;;;;;;2.90;1.00;;;10.00;99.90;;;;;;5075626;28;20172;-80
2021/10/31 03:48:53;;;;;;;2.13;1.77;;;10.00;99.90;;;;;;5071943;28;20210;-81
2021/10/31 03:51:19;;;;;;;1.57;1.40;;;9.90;99.90;;;;;;5072711;28;20204;-81
2021/10/31 03:53:44;;;;;;;0.97;0.97;;;9.80;99.90;;;;;;5076956;28;20196;-81
2021/10/31 03:56:10;;;;;;;0.37;0.37;;;9.70;99.90;;;;;;5074282;28;20223;-81
2021/10/31 03:58:35;;;;;;;0.80;0.80;;;9.70;99.90;;;;;;5075167;28;20211;-81
2021/10/31 04:01:01;;;;;;;1.37;0.80;;;9.70;99.90;;;;;;5071424;28;20213;-80
2021/10/31 04:03:28;;;;;;;1.33;1.23;;;9.70;99.90;;;;;;5059634;28;20747;-81
2021/10/31 04:05:53;;;;;;;0.93;0.70;;;9.60;99.90;;;;;;5074306;28;20187;-80
2021/10/31 04:08:19;;;;;;;2.10;1.00;;;9.50;99.90;;;;;;5069180;28;20552;-81
2021/10/31 04:10:45;;;;;;;1.50;1.40;;;9.50;99.90;;;;;;5078643;28;20255;-79
2021/10/31 04:13:10;;;;;;;1.07;1.07;;;9.40;99.90;;;;;;5067437;28;20184;-81
2021/10/31 04:15:36;;;;;;;0.97;0.67;;;9.50;99.90;;;;;;5076599;28;20223;-80
2021/10/31 04:18:01;;;;;;;1.03;1.00;;;9.50;99.90;;;;;;5069606;28;20184;-81
2021/10/31 04:20:27;;;;;;;0.53;0.53;;;9.50;99.90;;;;;;5075634;28;20285;-81
2021/10/31 04:22:52;;;;;;;0.73;0.73;;;9.40;99.90;;;;;;5073656;28;20613;-81
2021/10/31 04:25:18;;;;;;;2.07;0.83;;;9.50;99.90;;;;;;5071946;28;20209;-81
2021/10/31 04:27:44;;;;;;;1.13;1.03;;;9.40;99.90;;;;;;5071002;28;20193;-81
2021/10/31 04:30:12;;;;;;;0.33;0.33;;;9.50;99.90;;;;;;5076740;28;20240;-80
2021/10/31 04:32:39;;;;;;;0.80;0.80;;;9.50;99.90;;;;;;5076992;28;20184;-80
2021/10/31 04:35:05;;;;;;;0.47;0.47;;;9.50;99.90;;;;;;5074857;28;20177;-80
2021/10/31 04:37:33;;;;;;;0.50;0.50;;;9.50;99.90;;;;;;5071194;28;20202;-80
2021/10/31 04:40:00;;;;;;;1.10;1.00;;;9.50;99.90;;;;;;5056795;28;20250;-81
2021/10/31 04:42:30;;;;;;;0.57;0.57;;;9.40;99.90;;;;;;5070287;28;20203;-81
2021/10/31 04:44:56;;;;;;;1.63;0.80;;;9.50;99.90;;;;;;5080942;28;20210;-81
2021/10/31 04:47:21;;;;;;;2.73;2.07;;;9.50;99.90;;;;;;5071683;28;20230;-80
2021/10/31 04:49:47;;;;;;;1.13;1.07;;;9.30;99.90;;;;;;5076487;28;20197;-81
2021/10/31 04:52:14;;;;;;;2.53;2.33;;;9.30;99.90;;;;;;5069574;28;20232;-81
2021/10/31 04:54:40;;;;;;;1.53;1.23;;;9.30;99.90;;;;;;5075340;28;20218;-80
2021/10/31 04:57:06;;;;;;;1.30;1.17;;;9.40;99.90;;;;;;5073227;28;20184;-81
2021/10/31 04:59:32;;;;;;;1.30;1.17;;;9.50;99.90;;;;;;5071006;28;20244;-82
2021/10/31 05:01:58;;;;;;;0.70;0.70;;;9.60;99.90;;;;;;5070841;28;20234;-81
2021/10/31 05:04:23;;;;;;;1.97;1.70;;;9.60;99.90;;;;;;5067552;28;20634;-81
2021/10/31 05:06:49;;;;;;;3.50;0.90;;;9.70;99.90;;;;;;5070322;28;20216;-81
2021/10/31 05:09:15;;;;;;;2.03;1.23;;;9.60;99.90;;;;;;5070251;28;20206;-82
2021/10/31 05:11:41;;;;;;;1.67;1.57;;;9.60;99.90;;;;;;5069895;28;20195;-81
2021/10/31 05:14:07;;;;;;;1.67;1.33;;;9.60;99.90;;;;;;5069450;28;20199;-82
2021/10/31 05:16:35;;;;;;;1.00;1.00;;;9.60;99.90;;;;;;5066749;28;20184;-82
2021/10/31 05:19:02;;;;;;;1.60;1.50;;;9.60;99.90;;;;;;5067890;28;20572;-80
2021/10/31 05:21:28;;;;;;;1.00;1.00;;;9.60;99.90;;;;;;5065724;28;20262;-80
2021/10/31 05:23:54;;;;;;;1.33;1.10;;;9.60;99.90;;;;;;5071708;28;20235;-81
2021/10/31 05:26:19;;;;;;;5.33;2.27;;;9.60;99.90;;;;;;5059922;28;20182;-80
2021/10/31 05:28:45;;;;;;;0.57;0.57;;;9.60;99.90;;;;;;5064634;28;20211;-80
2021/10/31 05:31:10;;;;;;;1.13;1.03;;;9.60;99.90;;;;;;5070679;28;20183;-80
2021/10/31 05:33:36;;;;;;;1.27;1.17;;;9.60;99.90;;;;;;5063537;28;20179;-80
2021/10/31 05:36:03;;;;;;;0.90;0.90;;;9.70;99.90;;;;;;5066799;28;20189;-80
2021/10/31 05:38:29;;;;;;;1.07;1.03;;;9.70;99.90;;;;;;5061735;28;20193;-80
2021/10/31 05:40:55;;;;;;;1.17;1.17;;;9.60;99.90;;;;;;5070947;28;20258;-80
2021/10/31 05:43:20;;;;;;;0.70;0.70;;;9.60;99.90;;;;;;5055833;28;20716;-82
2021/10/31 05:45:46;;;;;;;2.63;0.90;;;9.80;99.90;;;;;;5065821;28;20563;-82
2021/10/31 05:48:12;;;;;;;0.63;0.57;;;9.70;99.90;;;;;;5072574;28;20577;-82
2021/10/31 05:50:40;;;;;;;4.63;1.53;;;9.70;99.90;;;;;;5068692;28;20192;-81
2021/10/31 05:53:06;;;;;;;1.60;1.07;;;9.70;99.90;;;;;;5077250;28;20179;-81
2021/10/31 05:55:33;;;;;;;1.67;1.27;;;9.70;99.90;;;;;;5068268;28;20225;-82
2021/10/31 05:57:58;;;;;;;1.87;1.57;;;9.80;99.90;;;;;;5084237;28;20187;-81
2021/10/31 06:00:24;;;;;;;0.63;0.63;;;9.80;99.90;;;;;;5068467;28;20193;-81
2021/10/31 06:02:50;;;;;;;0.77;0.77;;;9.80;99.90;;;;;;5081723;28;20243;-81
2021/10/31 06:05:17;;;;;;;1.67;1.23;;;9.80;99.90;;;;;;5078766;28;20215;-80
2021/10/31 06:07:43;;;;;;;1.70;1.10;;;9.80;99.90;;;;;;5075808;28;20645;-81
2021/10/31 06:10:10;;;;;;;0.93;0.77;;;9.90;99.90;;;;;;5077422;28;20230;-80
2021/10/31 06:12:40;;;;;;;1.83;1.20;;;9.90;99.90;;;;;;5067827;28;20193;-80
2021/10/31 06:15:06;;;;;;;1.10;0.67;;;9.90;99.90;;;;;;5097432;28;20194;-81
2021/10/31 06:17:33;;;;;;;0.70;0.70;;;10.10;99.90;;;;;;5058691;28;20188;-81
2021/10/31 06:20:00;;;;;;;1.87;1.27;;;10.10;99.90;;;;;;5064086;28;20210;-81
2021/10/31 06:22:25;;;;;;;1.57;1.47;;;10.00;99.90;;;;;;5069244;28;20198;-82
2021/10/31 06:24:51;;;;;;;1.07;0.53;;;10.00;99.90;;;;;;5067891;28;20217;-82
2021/10/31 06:27:17;;;;;;;0.90;0.90;;;10.00;99.90;;;;;;5072767;28;20196;-82
2021/10/31 06:29:42;;;;;;;5.10;1.33;;;10.10;99.90;;;;;;5064324;28;20214;-82
2021/10/31 06:32:08;;;;;;;1.23;1.13;;;10.10;99.90;;;;;;5075308;28;20200;-82
2021/10/31 06:34:33;;;;;;;0.70;0.70;;;10.00;99.90;;;;;;5066718;28;20177;-82
2021/10/31 06:36:59;;;;;;;0.13;0.13;;;10.20;99.90;;;;;;5066985;28;20198;-82
2021/10/31 06:39:25;;;;;;;1.30;0.93;;;10.30;99.90;;;;;;5071460;28;20201;-82
2021/10/31 06:41:50;;;;;;;2.10;1.50;;;10.30;99.90;;;;;;5073589;28;20547;-82
2021/10/31 06:44:16;;;;;;;2.37;1.30;;;10.30;99.90;;;;;;5074045;28;20203;-82
2021/10/31 06:46:41;;;;;;;1.73;1.03;;;10.20;99.90;;;;;;5052762;28;20233;-82
2021/10/31 06:49:09;;;;;;;0.83;0.60;;;10.10;99.90;;;;;;5077518;28;20194;-82
2021/10/31 06:51:35;;;;;;;6.57;1.17;;;10.20;99.90;;;;;;5065895;28;20240;-82
2021/10/31 06:54:02;;;;;;;1.30;1.00;;;10.20;99.90;;;;;;5069767;28;20188;-82
2021/10/31 06:56:27;;;;;;;0.87;0.87;;;10.20;99.90;;;;;;5078484;28;20187;-82
2021/10/31 06:58:53;;;;;;;1.40;1.03;;;10.20;99.90;;;;;;5069979;28;20383;-82
2021/10/31 07:01:20;;;;;;;3.30;1.57;;;10.20;99.90;;;;;;5066483;28;20208;-82
2021/10/31 07:03:48;;;;;;;1.83;1.73;;;10.20;99.90;;;;;;5075077;28;20270;-82
2021/10/31 07:06:15;;;;;;;0.57;0.57;;;10.30;99.90;;;;;;5082261;28;20667;-82
2021/10/31 07:08:41;;;;;;;0.80;0.80;;;10.30;99.90;;;;;;5075360;28;20197;-82
2021/10/31 07:11:07;;;;;;;4.03;1.80;;;10.30;99.90;;;;;;5086722;28;20177;-82
2021/10/31 07:13:33;;;;;;;3.60;1.50;;;10.40;99.90;;;;;;5067223;28;20188;-82
2021/10/31 07:15:59;;;;;;;1.97;1.00;;;10.50;99.90;;;;;;5067301;28;20209;-81
2021/10/31 07:18:25;;;;;;;0.60;0.60;;;10.50;99.90;;;;;;5074515;28;20657;-82
2021/10/31 07:20:50;;;;;;;0.40;0.40;;;10.70;99.90;;;;;;5067239;28;20189;-81
2021/10/31 07:23:16;;;;;;;1.07;0.97;;;10.80;99.90;;;;;;5057915;28;20196;-81
2021/10/31 07:25:41;;;;;;;1.30;0.93;;;10.90;99.90;;;;;;5053021;28;20213;-81
2021/10/31 07:28:07;;;;;;;1.80;1.63;;;11.00;99.90;;;;;;5071418;28;20176;-80
2021/10/31 07:30:33;;;;;;;1.43;0.93;;;11.20;99.90;;;;;;5073733;28;20204;-81
2021/10/31 07:33:01;;;;;;;1.70;1.40;;;11.50;99.90;;;;;;5071101;28;20611;-81
2021/10/31 07:35:28;;;;;;;2.73;2.23;;;11.80;99.90;;;;;;5074085;28;20189;-81
2021/10/31 07:37:54;;;;;;;0.50;0.50;;;11.80;99.90;;;;;;5078167;28;20187;-81
2021/10/31 07:40:22;;;;;;;3.60;1.13;;;11.80;99.90;;;;;;5063554;28;20274;-81
2021/10/31 07:42:49;;;;;;;1.07;1.00;;;11.90;99.90;;;;;;5100469;28;20244;-82
2021/10/31 07:45:14;;;;;;;1.37;1.37;;;12.00;99.90;;;;;;5067537;28;20216;-81
2021/10/31 07:47:40;;;;;;;1.20;1.10;;;11.90;99.90;;;;;;5055028;28;20543;-81
2021/10/31 07:50:07;;;;;;;1.33;1.23;;;12.20;99.90;;;;;;5077142;28;20197;-81
2021/10/31 07:52:33;;;;;;;3.43;0.80;;;12.30;99.90;;;;;;5079298;28;20219;-81
2021/10/31 07:55:01;;;;;;;0.80;0.80;;;12.10;99.90;;;;;;5066904;28;20170;-81
2021/10/31 07:57:29;;;;;;;1.57;1.03;;;12.30;99.90;;;;;;5071340;28;20199;-81
2021/10/31 07:59:54;;;;;;;1.60;0.73;;;12.40;99.90;;;;;;5074849;28;20228;-81
2021/10/31 08:02:20;;;;;;;0.93;0.63;;;12.40;99.90;;;;;;5067031;28;20188;-81
2021/10/31 08:04:46;;;;;;;0.77;0.77;;;12.40;99.90;;;;;;5073337;28;20668;-80
2021/10/31 08:07:13;;;;;;;2.30;0.77;;;12.20;99.90;;;;;;5073982;28;20260;-81
2021/10/31 08:09:39;;;;;;;2.10;1.23;;;11.90;99.90;;;;;;5071920;28;20204;-81
2021/10/31 08:12:06;;;;;;;1.00;0.97;;;12.10;99.90;;;;;;5075189;28;20617;-81
2021/10/31 08:14:32;;;;;;;0.70;0.70;;;12.10;99.90;;;;;;5071300;28;20385;-81
2021/10/31 08:16:58;;;;;;;1.80;1.50;;;12.30;99.90;;;;;;5075741;28;20208;-81
2021/10/31 08:19:24;;;;;;;1.67;1.57;;;12.10;99.90;;;;;;5076319;28;20201;-79
2021/10/31 08:21:51;;;;;;;1.30;1.17;;;11.80;99.90;;;;;;5072472;28;20270;-81
2021/10/31 08:24:16;;;;;;;1.70;1.60;;;11.90;99.90;;;;;;5074220;28;20572;-81
2021/10/31 08:26:42;;;;;;;0.83;0.83;;;11.90;99.90;;;;;;5066476;28;20189;-81
2021/10/31 08:29:10;;;;;;;1.20;0.93;;;12.00;99.90;;;;;;5075699;28;20215;-81
2021/10/31 08:31:40;;;;;;;1.03;1.00;;;12.20;99.90;;;;;;5079858;28;20183;-80
2021/10/31 08:34:06;;;;;;;1.50;1.40;;;12.30;99.90;;;;;;5071763;28;20522;-81
2021/10/31 08:36:31;;;;;;;1.93;1.57;;;12.50;99.90;;;;;;5078995;28;20184;-81
2021/10/31 08:38:58;;;;;;;0.63;0.63;;;12.70;99.90;;;;;;5071873;28;20197;-81
2021/10/31 08:41:25;;;;;;;1.90;1.63;;;12.70;99.90;;;;;;5055120;28;20185;-81
2021/10/31 08:43:52;;;;;;;0.77;0.77;;;13.00;99.90;;;;;;5059464;28;20229;-86
2021/10/31 08:46:18;;;;;;;1.10;1.10;;;13.20;99.90;;;;;;5062145;28;21565;-81
2021/10/31 08:48:45;;;;;;;0.60;0.60;;;13.50;99.90;;;;;;5057848;28;20233;-81
2021/10/31 08:51:11;;;;;;;1.83;1.50;;;13.90;99.90;;;;;;5043909;28;20182;-80
2021/10/31 08:53:37;;;;;;;2.90;1.67;;;13.80;99.90;;;;;;5050475;28;20178;-80
2021/10/31 08:56:04;;;;;;;1.63;1.47;;;14.30;99.90;;;;;;5041791;28;20185;-79
2021/10/31 08:58:30;;;;;;;1.33;1.23;;;14.00;99.90;;;;;;5057556;28;20625;-79
2021/10/31 09:00:56;;;;;;;1.73;1.33;;;14.00;99.90;;;;;;5065464;28;20177;-79
2021/10/31 09:03:22;;;;;;;0.83;0.83;;;14.30;99.90;;;;;;5052203;28;20267;-80
2021/10/31 09:05:47;;;;;;;1.63;1.03;;;14.50;99.90;;;;;;5064201;28;20182;-80
2021/10/31 09:08:13;;;;;;;1.53;1.10;;;14.80;99.90;;;;;;5060513;28;20701;-80
2021/10/31 09:10:40;;;;;;;0.40;0.40;;;15.20;99.90;;;;;;5063038;28;20604;-80
2021/10/31 09:13:06;;;;;;;0.93;0.67;;;15.50;99.90;;;;;;5058999;28;20179;-79
2021/10/31 09:15:32;;;;;;;2.30;1.07;;;15.80;99.90;;;;;;5055467;28;20182;-80
2021/10/31 09:17:59;;;;;;;2.10;1.57;;;15.70;99.90;;;;;;5062146;28;20204;-79
2021/10/31 09:20:26;;;;;;;0.97;0.80;;;15.80;99.90;;;;;;5065560;28;20215;-80
2021/10/31 09:22:54;;;;;;;3.63;1.10;;;15.70;99.90;;;;;;5056636;28;20185;-80
2021/10/31 09:25:21;;;;;;;3.47;0.97;;;15.40;99.90;;;;;;5056588;28;20199;-79
2021/10/31 09:27:47;;;;;;;1.50;1.40;;;15.60;99.90;;;;;;5050608;28;20192;-79
2021/10/31 09:30:13;;;;;;;1.10;1.10;;;15.80;99.90;;;;;;5070028;28;20277;-81
2021/10/31 09:32:41;;;;;;;0.80;0.80;;;15.70;99.90;;;;;;5052991;28;20210;-80
2021/10/31 09:35:07;;;;;;;1.00;0.83;;;15.20;99.90;;;;;;5052931;28;20663;-81
2021/10/31 09:37:34;;;;;;;1.50;0.90;;;15.40;99.90;;;;;;5061734;28;20185;-81
2021/10/31 09:40:01;;;;;;;1.27;1.17;;;15.50;99.90;;;;;;5043229;28;20213;-81
2021/10/31 09:42:27;;;;;;;1.43;1.23;;;15.90;99.90;;;;;;5058185;28;20559;-82
2021/10/31 09:44:53;;;;;;;1.30;1.17;;;16.40;99.90;;;;;;5058970;28;20221;-81
2021/10/31 09:47:25;;;;;;;0.90;0.50;;;16.70;99.90;;;;;;5050627;28;20197;-81
2021/10/31 09:49:51;;;;;;;0.70;0.70;;;17.00;99.90;;;;;;5064097;28;20283;-81
2021/10/31 09:52:17;;;;;;;0.73;0.60;;;17.20;99.90;;;;;;5053786;28;20255;-81
2021/10/31 09:54:43;;;;;;;2.80;0.73;;;17.20;99.90;;;;;;5059991;28;20213;-82
2021/10/31 09:57:10;;;;;;;0.70;0.63;;;16.50;99.90;;;;;;5065436;28;20196;-81
2021/10/31 09:59:40;;;;;;;2.87;1.23;;;16.60;99.90;;;;;;5065430;28;20581;-81
2021/10/31 10:04:49;;;;;;;0.90;0.73;;;15.80;99.90;;;;;;5064093;28;20711;-81
2021/10/31 10:07:16;;;;;;;1.23;1.10;;;16.20;99.90;;;;;;5059733;28;20184;-82
2021/10/31 10:09:53;;;;;;;1.40;1.00;;;16.40;99.90;;;;;;5072617;28;20207;-81
2021/10/31 10:12:20;;;;;;;1.93;1.70;;;16.50;99.90;;;;;;5076672;28;20192;-81
2021/10/31 10:14:59;;;;;;;1.80;0.80;;;16.40;99.90;;;;;;5068659;28;20604;-82
2021/10/31 10:17:24;;;;;;;0.53;0.53;;;16.40;99.90;;;;;;5076369;28;20184;-81
2021/10/31 10:19:57;;;;;;;0.87;0.83;;;16.40;99.90;;;;;;5065384;28;20545;-82
2021/10/31 10:22:25;;;;;;;0.70;0.70;;;16.60;99.90;;;;;;5071528;28;20183;-81
2021/10/31 10:25:01;;;;;;;0.57;0.57;;;16.70;99.90;;;;;;5069521;28;20208;-82
2021/10/31 10:27:30;;;;;;;0.90;0.90;;;16.50;99.90;;;;;;5080901;28;20234;-82
2021/10/31 10:29:57;;;;;;;0.50;0.43;;;16.60;99.90;;;;;;5073995;28;20235;-81
2021/10/31 10:32:27;;;;;;;2.33;1.30;;;16.90;99.90;;;;;;5065250;28;20200;-82
2021/10/31 10:34:57;;;;;;;0.77;0.77;;;16.20;99.90;;;;;;5070854;28;20208;-81
2021/10/31 10:37:28;;;;;;;1.70;0.83;;;16.30;99.90;;;;;;5078778;28;20193;-82
2021/10/31 10:39:57;;;;;;;1.30;0.83;;;16.00;99.90;;;;;;5064478;28;20224;-81
2021/10/31 10:42:28;;;;;;;1.90;1.30;;;15.80;99.90;;;;;;5055605;28;20258;-81
2021/10/31 10:44:57;;;;;;;1.47;0.57;;;16.00;99.90;;;;;;5067896;28;20273;-81
2021/10/31 10:47:24;;;;;;;0.70;0.70;;;16.00;99.90;;;;;;5075741;28;20212;-81
2021/10/31 10:49:51;;;;;;;1.47;1.13;;;16.00;99.90;;;;;;5062020;28;20229;-82
2021/10/31 10:52:25;;;;;;;0.97;0.67;;;16.00;99.90;;;;;;5062048;28;20245;-82
2021/10/31 10:54:58;;;;;;;1.13;0.80;;;15.90;99.90;;;;;;5068772;28;20204;-80
2021/10/31 10:57:25;;;;;;;0.70;0.60;;;16.00;99.90;;;;;;5070422;28;20216;-82
2021/10/31 10:59:52;;;;;;;0.80;0.67;;;16.20;99.90;;;;;;5058924;28;20211;-82
2021/10/31 11:02:19;;;;;;;1.23;0.77;;;16.00;99.90;;;;;;5070271;28;20220;-82
2021/10/31 11:04:51;;;;;;;1.97;1.27;;;16.10;99.90;;;;;;5068057;28;20210;-82
2021/10/31 11:07:17;;;;;;;0.67;0.60;;;16.10;99.90;;;;;;5074333;28;20188;-82
2021/10/31 11:09:46;;;;;;;0.60;0.60;;;16.20;99.90;;;;;;5068720;28;20231;-82
2021/10/31 11:12:25;;;;;;;0.77;0.77;;;16.00;99.90;;;;;;5073073;28;20212;-81
2021/10/31 11:14:59;;;;;;;0.93;0.93;;;16.00;99.90;;;;;;5060647;28;20181;-82
2021/10/31 11:17:25;;;;;;;1.20;1.07;;;16.00;99.90;;;;;;5067372;28;20188;-81
2021/10/31 11:19:52;;;;;;;0.70;0.70;;;16.30;99.90;;;;;;5074777;28;20646;-82
2021/10/31 11:22:20;;;;;;;0.87;0.70;;;16.70;99.90;;;;;;5076063;28;20178;-82
2021/10/31 11:24:48;;;;;;;0.80;0.30;;;16.60;99.90;;;;;;5076652;28;20319;-82
2021/10/31 11:27:22;;;;;;;0.57;0.57;;;16.80;99.90;;;;;;5096802;28;20196;-82
2021/10/31 11:29:50;;;;;;;0.73;0.53;;;17.10;99.90;;;;;;5082223;28;20254;-82
2021/10/31 11:32:18;;;;;;;0.53;0.53;;;17.30;99.90;;;;;;5076806;28;20217;-82
2021/10/31 11:34:47;;;;;;;0.60;0.50;;;17.40;99.90;;;;;;5076231;28;20200;-82
2021/10/31 11:37:16;;;;;;;0.63;0.63;;;17.50;99.90;;;;;;5076065;28;20185;-83
2021/10/31 11:39:43;;;;;;;0.73;0.30;;;17.40;99.90;;;;;;5068139;28;20187;-82
2021/10/31 11:42:10;;;;;;;0.97;0.53;;;17.60;99.90;;;;;;5076299;28;20170;-82
2021/10/31 11:45:05;;;;;;;0.67;0.60;;;17.70;99.90;;;;;;5083413;28;20191;-82
2021/10/31 11:47:31;;;;;;;1.23;0.90;;;17.50;99.90;;;;;;5073511;28;20201;-82
2021/10/31 11:50:11;;;;;;;1.30;1.00;;;17.10;99.90;;;;;;5076801;28;20322;-82
2021/10/31 11:52:58;;;;;;;0.40;0.40;;;17.30;99.90;;;;;;5082325;28;20194;-82
2021/10/31 11:55:29;;;;;;;0.67;0.40;;;17.10;99.90;;;;;;5076523;28;20209;-82
2021/10/31 11:58:10;;;;;;;0.50;0.50;;;17.00;99.90;;;;;;5070878;28;20188;-82
2021/10/31 12:00:51;;;;;;;0.33;0.33;;;16.90;99.90;;;;;;5077274;28;20231;-83
2021/10/31 12:03:32;;;;;;;0.60;0.60;;;16.50;99.90;;;;;;5075449;28;20216;-82
2021/10/31 12:06:21;;;;;;;0.33;0.33;;;16.30;99.90;;;;;;5085976;28;20184;-82
2021/10/31 12:08:54;;;;;;;0.77;0.50;;;16.30;99.90;;;;;;5091345;28;20208;-82
2021/10/31 12:11:39;;;;;;;1.70;0.70;;;16.40;99.90;;;;;;5070943;28;20170;-82
2021/10/31 12:14:06;;;;;;;0.33;0.33;;;16.40;99.90;;;;;;5079625;28;20227;-82
2021/10/31 12:16:58;;;;;;;0.63;0.63;;;16.50;99.90;;;;;;5073643;28;20190;-82
2021/10/31 12:19:46;;;;;;;0.73;0.50;;;16.70;99.90;;;;;;5069870;28;20213;-81
2021/10/31 12:22:29;;;;;;;0.53;0.47;;;16.80;99.90;;;;;;5077070;28;20176;-81
2021/10/31 12:25:00;;;;;;;1.07;0.97;;;16.80;99.90;;;;;;5073657;28;20223;-81
2021/10/31 12:27:38;;;;;;;0.43;0.43;;;16.90;99.90;;;;;;5077259;28;20204;-84
2021/10/31 12:30:22;;;;;;;0.43;0.30;;;16.90;99.90;;;;;;5062956;28;20204;-83
2021/10/31 12:32:48;;;;;;;0.20;0.20;;;16.80;99.90;;;;;;5080992;28;20196;-83
2021/10/31 12:35:48;;;;;;;0.77;0.77;;;16.80;99.90;;;;;;5083517;28;20197;-83
2021/10/31 12:38:20;;;;;;;1.70;0.53;;;16.90;99.90;;;;;;5056262;28;20207;-83
2021/10/31 12:41:09;;;;;;;0.60;0.60;;;16.90;99.90;;;;;;5088431;28;20192;-83
2021/10/31 12:43:47;;;;;;;0.20;0.20;;;16.90;99.90;;;;;;5077049;28;20568;-83
2021/10/31 12:46:26;;;;;;;0.27;0.23;;;16.80;99.90;;;;;;5064867;28;20184;-82
2021/10/31 12:49:04;;;;;;;0.20;0.20;;;16.70;99.90;;;;;;5045642;28;20204;-81
2021/10/31 12:51:53;;;;;;;0.30;0.30;;;16.70;99.90;;;;;;5056861;28;20211;-82
2021/10/31 12:54:24;;;;;;;0.97;0.40;;;16.50;99.90;;;;;;5057316;28;20181;-81
2021/10/31 12:56:51;;;;;;;0.50;0.30;;;16.60;99.90;;;;;;5062802;28;20266;-81
2021/10/31 12:59:17;;;;;;;0.40;0.40;;;16.70;99.90;;;;;;5065858;28;20201;-81
2021/10/31 13:01:47;;;;;;;0.43;0.43;;;16.70;99.90;;;;;;5055807;28;20216;-82
2021/10/31 13:04:13;;;;;;;0.73;0.70;;;16.80;99.90;;;;;;5060128;28;20626;-81